createdAt,value
2019-01-25T00:01:05.772Z,69.40
2019-01-25T00:03:34.629Z,76.77
2019-01-25T00:06:03.486Z,73.37
2019-01-25T00:08:32.346Z,75.43
2019-01-25T00:11:01.585Z,73.73
2019-01-25T00:13:30.475Z,71.33
2019-01-25T00:15:59.340Z,74.97
2019-01-25T00:18:28.261Z,77.30
2019-01-25T00:20:57.120Z,75.27
2019-01-25T00:23:25.961Z,77.37
2019-01-25T00:25:54.842Z,78.57
2019-01-25T00:28:23.769Z,75.77
2019-01-25T00:30:52.621Z,71.77
2019-01-25T00:33:21.474Z,74.40
2019-01-25T00:35:50.361Z,71.20
2019-01-25T00:38:19.270Z,71.27
2019-01-25T00:40:48.146Z,72.57
2019-01-25T00:43:17.000Z,79.17
2019-01-25T00:45:45.859Z,75.87
2019-01-25T00:48:15.252Z,77.87
2019-01-25T00:50:44.276Z,76.53
2019-01-25T00:53:13.208Z,72.57
2019-01-25T00:55:42.064Z,77.70
2019-01-25T00:58:10.924Z,80.27
2019-01-25T01:00:39.784Z,82.33
2019-01-25T01:03:08.644Z,80.37
2019-01-25T01:05:37.709Z,80.73
2019-01-25T01:08:06.647Z,79.37
2019-01-25T01:10:35.502Z,81.03
2019-01-25T01:13:04.370Z,83.43
2019-01-25T01:15:33.284Z,80.97
2019-01-25T01:18:02.153Z,83.13
2019-01-25T01:20:31.081Z,82.33
2019-01-25T01:22:59.952Z,78.97
2019-01-25T01:25:28.797Z,83.60
2019-01-25T01:27:57.973Z,81.60
2019-01-25T01:30:26.837Z,82.43
2019-01-25T01:32:55.693Z,80.63
2019-01-25T01:35:24.571Z,84.27
2019-01-25T01:37:53.424Z,79.43
2019-01-25T01:40:24.110Z,86.47
2019-01-25T01:42:54.194Z,82.40
2019-01-25T01:45:23.210Z,83.07
2019-01-25T01:47:52.166Z,83.33
2019-01-25T01:50:21.052Z,81.97
2019-01-25T01:52:51.668Z,74.20
2019-01-25T01:55:20.529Z,80.23
2019-01-25T01:57:49.390Z,73.90
2019-01-25T02:00:21.640Z,84.00
2019-01-25T02:02:50.497Z,82.10
2019-01-25T02:05:19.364Z,83.60
2019-01-25T02:07:48.220Z,79.43
2019-01-25T02:10:19.978Z,79.60
2019-01-25T02:12:48.855Z,84.17
2019-01-25T02:15:18.457Z,85.17
2019-01-25T02:17:47.331Z,88.17
2019-01-25T02:20:19.988Z,83.30
2019-01-25T02:22:48.846Z,84.17
2019-01-25T02:25:17.700Z,80.00
2019-01-25T02:27:46.541Z,87.30
2019-01-25T02:30:17.831Z,87.87
2019-01-25T02:32:46.674Z,82.60
2019-01-25T02:35:18.827Z,91.70
2019-01-25T02:37:47.703Z,83.67
2019-01-25T02:40:18.525Z,85.37
2019-01-25T02:42:47.370Z,88.93
2019-01-25T02:45:16.231Z,85.33
2019-01-25T02:47:45.075Z,86.10
2019-01-25T02:50:15.717Z,83.13
2019-01-25T02:52:44.572Z,85.27
2019-01-25T02:55:13.580Z,84.07
2019-01-25T02:57:42.420Z,85.47
2019-01-25T03:00:16.410Z,86.37
2019-01-25T03:02:45.290Z,83.50
2019-01-25T03:05:14.407Z,83.93
2019-01-25T03:07:43.304Z,86.27
2019-01-25T03:10:12.394Z,79.00
2019-01-25T03:12:41.238Z,79.87
2019-01-25T03:15:12.912Z,83.10
2019-01-25T03:17:41.749Z,85.87
2019-01-25T03:20:11.222Z,83.43
2019-01-25T03:22:40.068Z,83.67
2019-01-25T03:25:10.745Z,80.50
2019-01-25T03:27:39.618Z,88.63
2019-01-25T03:30:10.971Z,89.07
2019-01-25T03:32:39.846Z,84.60
2019-01-25T03:35:09.680Z,81.53
2019-01-25T03:37:38.521Z,80.40
2019-01-25T03:40:08.683Z,80.97
2019-01-25T03:42:37.568Z,83.03
2019-01-25T03:45:06.826Z,79.57
2019-01-25T03:47:35.665Z,83.60
2019-01-25T03:50:06.145Z,83.23
2019-01-25T03:52:35.007Z,83.97
2019-01-25T03:55:03.921Z,75.67
2019-01-25T03:57:32.885Z,83.40
2019-01-25T04:00:02.379Z,84.07
2019-01-25T04:02:31.318Z,86.20
2019-01-25T04:05:00.191Z,82.73
2019-01-25T04:07:29.034Z,83.57
2019-01-25T04:09:57.938Z,80.37
2019-01-25T04:12:26.794Z,89.47
2019-01-25T04:14:55.635Z,88.83
2019-01-25T04:17:24.481Z,82.60
2019-01-25T04:19:53.347Z,86.10
2019-01-25T04:22:22.223Z,83.87
2019-01-25T04:24:51.105Z,80.27
2019-01-25T04:27:20.037Z,84.83
2019-01-25T04:29:48.879Z,79.23
2019-01-25T04:32:17.738Z,82.43
2019-01-25T04:34:46.603Z,81.33
2019-01-25T04:37:15.918Z,75.70
2019-01-25T04:39:47.785Z,79.17
2019-01-25T04:42:16.689Z,83.03
2019-01-25T04:44:45.503Z,79.97
2019-01-25T04:47:14.348Z,83.67
2019-01-25T04:49:43.211Z,82.23
2019-01-25T04:52:13.450Z,76.93
2019-01-25T04:54:42.307Z,83.40
2019-01-25T04:57:11.172Z,78.80
2019-01-25T04:59:40.028Z,72.23
2019-01-25T05:02:08.868Z,76.47
2019-01-25T05:04:37.711Z,80.50
2019-01-25T05:07:06.537Z,79.50
2019-01-25T05:09:38.312Z,81.87
2019-01-25T05:12:07.241Z,81.73
2019-01-25T05:14:36.128Z,74.50
2019-01-25T05:17:04.955Z,83.17
2019-01-25T05:19:39.239Z,80.33
2019-01-25T05:22:08.123Z,80.37
2019-01-25T05:24:36.920Z,82.83
2019-01-25T05:27:05.732Z,81.53
2019-01-25T05:29:54.284Z,78.90
2019-01-25T05:32:23.119Z,80.03
2019-01-25T05:34:51.945Z,79.60
2019-01-25T05:37:20.787Z,81.50
2019-01-25T05:39:50.132Z,79.33
2019-01-25T05:42:18.947Z,77.73
2019-01-25T05:44:47.832Z,81.63
2019-01-25T05:47:16.629Z,78.60
2019-01-25T05:49:45.445Z,79.03
2019-01-25T05:52:16.975Z,79.13
2019-01-25T05:54:45.897Z,74.77
2019-01-25T05:57:14.713Z,78.10
2019-01-25T05:59:43.519Z,76.53
2019-01-25T06:02:12.327Z,75.63
2019-01-25T06:04:41.133Z,79.33
2019-01-25T06:07:09.951Z,76.13
2019-01-25T06:09:38.853Z,74.67
2019-01-25T06:12:07.655Z,77.73
2019-01-25T06:14:36.465Z,81.60
2019-01-25T06:17:05.296Z,74.50
2019-01-25T06:19:37.324Z,78.87
2019-01-25T06:22:06.090Z,78.00
2019-01-25T06:24:34.884Z,77.33
2019-01-25T06:27:03.712Z,74.97
2019-01-25T06:29:33.609Z,77.77
2019-01-25T06:32:02.669Z,81.57
2019-01-25T06:34:32.636Z,78.43
2019-01-25T06:37:02.513Z,73.60
2019-01-25T06:39:31.739Z,76.07
2019-01-25T06:42:00.575Z,101.23
2019-01-25T06:44:29.426Z,85.27
2019-01-25T06:46:59.082Z,84.90
2019-01-25T06:49:34.506Z,84.23
2019-01-25T06:52:03.301Z,79.67
2019-01-25T06:54:32.140Z,79.43
2019-01-25T06:57:00.946Z,77.73
2019-01-25T06:59:33.924Z,72.13
2019-01-25T07:02:07.691Z,77.13
2019-01-25T07:04:36.501Z,81.87
2019-01-25T07:07:06.694Z,79.83
2019-01-25T07:09:35.499Z,81.47
2019-01-25T07:12:04.311Z,81.43
2019-01-25T07:14:33.110Z,76.37
2019-01-25T07:17:01.924Z,81.37
2019-01-25T07:19:30.851Z,81.13
2019-01-25T07:21:59.740Z,77.87
2019-01-25T07:24:29.204Z,77.03
2019-01-25T07:26:58.024Z,77.60
2019-01-25T07:29:26.829Z,80.03
2019-01-25T07:31:56.327Z,77.33
2019-01-25T07:34:25.142Z,86.20
2019-01-25T07:36:53.971Z,82.23
2019-01-25T07:39:25.676Z,81.37
2019-01-25T07:41:59.234Z,81.57
2019-01-25T07:44:23.288Z,80.63
2019-01-25T07:46:52.164Z,83.13
2019-01-25T07:49:21.003Z,80.17
2019-01-25T07:51:49.805Z,81.67
2019-01-25T07:54:18.621Z,84.43
2019-01-25T07:56:47.447Z,83.53
2019-01-25T07:59:16.260Z,82.07
2019-01-25T08:01:45.079Z,80.00
2019-01-25T08:04:14.047Z,82.77
2019-01-25T08:06:42.715Z,87.80
2019-01-25T08:09:11.503Z,78.73
2019-01-25T08:11:40.309Z,80.57
2019-01-25T08:14:09.142Z,81.87
2019-01-25T08:16:37.971Z,79.63
2019-01-25T08:19:06.795Z,79.30
2019-01-25T08:21:36.199Z,74.97
2019-01-25T08:24:04.473Z,79.73
2019-01-25T08:26:33.381Z,73.77
2019-01-25T08:29:02.275Z,72.43
2019-01-25T08:31:31.143Z,82.97
2019-01-25T08:34:00.050Z,77.77
2019-01-25T08:36:28.835Z,83.33
2019-01-25T08:38:57.717Z,77.20
2019-01-25T08:41:26.497Z,75.70
2019-01-25T08:43:55.304Z,77.70
2019-01-25T08:46:24.130Z,75.83
2019-01-25T08:48:52.920Z,82.87
2019-01-25T08:51:21.831Z,84.80
2019-01-25T08:53:50.606Z,85.73
2019-01-25T08:56:19.528Z,80.40
2019-01-25T08:58:48.351Z,80.37
2019-01-25T09:01:17.141Z,80.03
2019-01-25T09:03:45.965Z,83.70
2019-01-25T09:06:14.797Z,82.70
2019-01-25T09:08:43.630Z,81.30
2019-01-25T09:11:12.495Z,79.60
2019-01-25T09:13:41.284Z,79.50
2019-01-25T09:16:10.205Z,81.13
2019-01-25T09:18:39.008Z,78.43
2019-01-25T09:21:07.894Z,82.80
2019-01-25T09:23:36.702Z,80.07
2019-01-25T09:26:05.542Z,83.07
2019-01-25T09:28:34.372Z,82.40
2019-01-25T09:31:03.202Z,77.20
2019-01-25T09:33:32.048Z,79.97
2019-01-25T09:36:00.903Z,77.83
2019-01-25T09:38:29.948Z,81.37
2019-01-25T09:40:58.759Z,80.90
2019-01-25T09:43:36.510Z,84.23
2019-01-25T09:46:05.323Z,79.43
2019-01-25T09:48:34.123Z,82.53
2019-01-25T09:51:03.960Z,79.03
2019-01-25T09:53:32.903Z,79.30
2019-01-25T09:56:01.765Z,80.53
2019-01-25T09:58:30.654Z,87.17
2019-01-25T10:01:02.773Z,84.77
2019-01-25T10:03:31.583Z,82.13
2019-01-25T10:06:00.440Z,83.43
2019-01-25T10:08:29.243Z,86.03
2019-01-25T10:10:58.171Z,79.40
2019-01-25T10:13:27.046Z,81.17
2019-01-25T10:15:55.878Z,84.20
2019-01-25T10:18:25.027Z,84.73
2019-01-25T10:20:53.628Z,82.73
2019-01-25T10:23:22.438Z,83.43
2019-01-25T10:25:51.853Z,82.20
2019-01-25T10:28:20.688Z,80.23
2019-01-25T10:30:49.492Z,85.97
2019-01-25T10:33:18.324Z,82.27
2019-01-25T10:35:47.155Z,78.67
2019-01-25T10:38:15.991Z,82.00
2019-01-25T10:40:44.799Z,87.17
2019-01-25T10:43:13.648Z,84.40
2019-01-25T10:45:42.576Z,83.30
2019-01-25T10:48:11.366Z,79.63
2019-01-25T10:50:40.193Z,80.90
2019-01-25T10:53:10.079Z,83.47
2019-01-25T10:55:39.170Z,83.67
2019-01-25T10:58:08.131Z,81.50
2019-01-25T11:00:36.980Z,79.20
2019-01-25T11:03:05.991Z,81.97
2019-01-25T11:05:35.847Z,71.03
2019-01-25T11:08:05.107Z,66.40
2019-01-25T11:10:33.956Z,65.37
2019-01-25T11:13:04.952Z,62.13
2019-01-25T11:15:34.336Z,62.03
2019-01-25T11:18:03.126Z,57.63
2019-01-25T11:20:31.935Z,55.13
2019-01-25T11:23:01.196Z,55.07
2019-01-25T11:25:33.851Z,56.10
2019-01-25T11:28:02.696Z,58.10
2019-01-25T11:30:31.584Z,54.80
2019-01-25T11:33:02.202Z,55.23
2019-01-25T11:35:31.768Z,59.47
2019-01-25T11:38:00.571Z,58.97
2019-01-25T11:40:31.924Z,59.40
2019-01-25T11:43:08.190Z,55.60
2019-01-25T11:45:29.581Z,55.83
2019-01-25T11:47:58.785Z,57.90
2019-01-25T11:50:27.267Z,52.10
2019-01-25T11:52:56.106Z,50.60
2019-01-25T11:55:24.973Z,45.67
2019-01-25T11:57:53.747Z,40.17
2019-01-25T12:00:24.214Z,38.73
2019-01-25T12:02:53.061Z,36.63
2019-01-25T12:05:23.455Z,36.07
2019-01-25T12:07:53.083Z,33.73
2019-01-25T12:10:25.095Z,31.80
2019-01-25T12:12:53.910Z,32.90
2019-01-25T12:15:22.691Z,32.47
2019-01-25T12:17:52.710Z,32.00
2019-01-25T12:20:26.137Z,33.27
2019-01-25T12:22:55.687Z,32.80
2019-01-25T12:25:24.574Z,32.07
2019-01-25T12:27:53.367Z,33.23
2019-01-25T12:30:26.306Z,32.93
2019-01-25T12:32:55.115Z,35.30
2019-01-25T12:35:23.990Z,34.33
2019-01-25T12:37:52.798Z,34.67
2019-01-25T12:40:21.596Z,32.90
2019-01-25T12:42:50.424Z,35.03
2019-01-25T12:45:21.344Z,43.37
2019-01-25T12:47:50.174Z,35.43
2019-01-25T12:50:23.826Z,36.83
2019-01-25T12:52:53.227Z,35.13
2019-01-25T12:55:22.052Z,37.33
2019-01-25T12:57:50.891Z,37.03
2019-01-25T13:00:23.475Z,36.97
2019-01-25T13:02:53.662Z,37.03
2019-01-25T13:05:23.132Z,37.10
2019-01-25T13:07:53.362Z,36.07
2019-01-25T13:10:22.632Z,36.57
2019-01-25T13:12:51.438Z,35.97
2019-01-25T13:15:20.230Z,36.10
2019-01-25T13:17:49.022Z,37.20
2019-01-25T13:20:20.268Z,38.13
2019-01-25T13:22:49.131Z,39.60
2019-01-25T13:25:18.006Z,36.07
2019-01-25T13:27:46.783Z,37.93
2019-01-25T13:30:19.547Z,42.10
2019-01-25T13:32:49.346Z,37.53
2019-01-25T13:35:19.906Z,41.23
2019-01-25T13:37:48.718Z,41.30
2019-01-25T13:40:18.956Z,38.83
2019-01-25T13:42:47.751Z,40.00
2019-01-25T13:45:17.671Z,41.70
2019-01-25T13:47:46.570Z,41.50
2019-01-25T13:50:17.685Z,39.43
2019-01-25T13:52:46.551Z,43.53
2019-01-25T13:55:15.434Z,40.90
2019-01-25T13:57:44.496Z,40.37
2019-01-25T14:00:19.900Z,45.23
2019-01-25T14:02:50.459Z,44.37
2019-01-25T14:05:19.263Z,43.83
2019-01-25T14:07:49.358Z,47.47
2019-01-25T14:10:20.868Z,51.17
2019-01-25T14:12:49.658Z,42.93
2019-01-25T14:15:18.572Z,44.30
2019-01-25T14:17:48.814Z,45.77
2019-01-25T14:20:23.333Z,44.20
2019-01-25T14:22:48.611Z,42.50
2019-01-25T14:25:17.412Z,46.27
2019-01-25T14:27:46.270Z,42.90
2019-01-25T14:30:22.047Z,46.10
2019-01-25T14:32:50.864Z,44.23
2019-01-25T14:35:19.680Z,41.10
2019-01-25T14:37:48.510Z,41.50
2019-01-25T14:40:17.311Z,43.33
2019-01-25T14:42:46.143Z,44.03
2019-01-25T14:45:15.054Z,40.20
2019-01-25T14:47:43.851Z,41.17
2019-01-25T14:50:15.229Z,40.53
2019-01-25T14:52:44.071Z,41.87
2019-01-25T14:55:12.899Z,38.17
2019-01-25T14:57:41.743Z,38.80
2019-01-25T15:00:10.547Z,38.27
2019-01-25T15:02:39.369Z,39.10
2019-01-25T15:05:10.401Z,37.30
2019-01-25T15:07:39.175Z,40.33
2019-01-25T15:10:12.762Z,40.23
2019-01-25T15:12:41.649Z,38.97
2019-01-25T15:15:11.511Z,41.50
2019-01-25T15:17:40.351Z,41.40
2019-01-25T15:20:12.254Z,39.97
2019-01-25T15:22:41.099Z,39.73
2019-01-25T15:25:09.892Z,39.30
2019-01-25T15:27:38.693Z,40.83
2019-01-25T15:30:09.952Z,42.43
2019-01-25T15:32:38.815Z,43.03
2019-01-25T15:35:08.960Z,39.90
2019-01-25T15:37:37.749Z,41.37
2019-01-25T15:40:07.904Z,42.37
2019-01-25T15:42:38.061Z,42.27
2019-01-25T15:45:10.575Z,42.13
2019-01-25T15:47:39.393Z,42.17
2019-01-25T15:50:13.459Z,42.27
2019-01-25T15:52:42.267Z,43.30
2019-01-25T15:55:11.078Z,44.63
2019-01-25T15:57:39.864Z,44.77
2019-01-25T16:00:12.068Z,45.57
2019-01-25T16:02:40.879Z,41.77
2019-01-25T16:05:11.421Z,44.13
2019-01-25T16:07:40.282Z,42.33
2019-01-25T16:10:11.063Z,44.63
2019-01-25T16:12:41.093Z,40.57
2019-01-25T16:15:12.680Z,40.63
2019-01-25T16:17:41.453Z,43.77
2019-01-25T16:20:11.843Z,41.47
2019-01-25T16:22:41.249Z,44.83
2019-01-25T16:25:12.687Z,38.33
2019-01-25T16:27:41.623Z,42.90
2019-01-25T16:30:13.735Z,42.90
2019-01-25T16:32:44.133Z,41.53
2019-01-25T16:35:14.828Z,40.17
2019-01-25T16:37:43.605Z,40.40
2019-01-25T16:40:15.739Z,37.70
2019-01-25T16:42:43.597Z,40.07
2019-01-25T16:45:17.240Z,40.20
2019-01-25T16:47:46.095Z,38.33
2019-01-25T16:50:23.442Z,40.00
2019-01-25T16:52:46.048Z,41.23
2019-01-25T16:55:16.910Z,38.73
2019-01-25T16:57:47.191Z,38.27
2019-01-25T17:00:29.911Z,40.03
2019-01-25T17:02:59.039Z,40.27
2019-01-25T17:05:27.839Z,37.80
2019-01-25T17:07:57.274Z,40.87
2019-01-25T17:10:26.152Z,42.23
2019-01-25T17:12:55.204Z,47.17
2019-01-25T17:15:24.293Z,39.17
2019-01-25T17:17:53.236Z,38.80
2019-01-25T17:20:22.891Z,36.47
2019-01-25T17:22:52.683Z,35.47
2019-01-25T17:25:21.499Z,38.43
2019-01-25T17:27:50.291Z,35.47
2019-01-25T17:30:24.264Z,35.20
2019-01-25T17:32:54.410Z,36.27
2019-01-25T17:35:23.200Z,37.70
2019-01-25T17:37:52.034Z,38.37
2019-01-25T17:40:22.810Z,36.73
2019-01-25T17:42:51.594Z,39.57
2019-01-25T17:45:20.487Z,44.70
2019-01-25T17:47:49.417Z,39.90
2019-01-25T17:50:18.294Z,41.03
2019-01-25T17:52:47.087Z,39.53
2019-01-25T17:55:15.931Z,39.43
2019-01-25T17:57:44.717Z,34.70
2019-01-25T18:00:17.000Z,38.77
2019-01-25T18:02:45.786Z,32.60
2019-01-25T18:05:14.575Z,33.40
2019-01-25T18:07:44.260Z,33.23
2019-01-25T18:10:13.887Z,37.50
2019-01-25T18:12:43.628Z,35.70
2019-01-25T18:15:12.683Z,33.87
2019-01-25T18:17:41.551Z,34.80
2019-01-25T18:20:12.440Z,31.40
2019-01-25T18:22:41.223Z,33.87
2019-01-25T18:25:11.771Z,32.57
2019-01-25T18:27:43.386Z,33.93
2019-01-25T18:30:18.264Z,34.33
2019-01-25T18:32:47.048Z,32.03
2019-01-25T18:35:15.828Z,31.67
2019-01-25T18:37:44.623Z,31.23
2019-01-25T18:40:13.407Z,29.20
2019-01-25T18:42:42.307Z,29.43
2019-01-25T18:45:11.116Z,30.17
2019-01-25T18:47:40.088Z,28.23
2019-01-25T18:50:10.768Z,33.37
2019-01-25T18:52:39.611Z,35.33
2019-01-25T18:55:11.874Z,30.63
2019-01-25T18:57:40.720Z,29.13
2019-01-25T19:00:12.694Z,31.90
2019-01-25T19:02:41.515Z,31.27
2019-01-25T19:05:10.351Z,26.07
2019-01-25T19:07:39.171Z,31.20
2019-01-25T19:10:11.328Z,29.33
2019-01-25T19:12:40.171Z,28.97
2019-01-25T19:15:11.093Z,28.67
2019-01-25T19:17:40.973Z,28.77
2019-01-25T19:20:11.391Z,29.03
2019-01-25T19:22:41.188Z,24.13
2019-01-25T19:25:10.112Z,28.93
2019-01-25T19:27:39.911Z,27.03
2019-01-25T19:30:17.191Z,29.07
2019-01-25T19:32:46.698Z,29.50
2019-01-25T19:35:15.507Z,31.47
2019-01-25T19:37:44.823Z,30.13
2019-01-25T19:40:15.046Z,28.47
2019-01-25T19:42:43.839Z,28.97
2019-01-25T19:45:12.651Z,29.17
2019-01-25T19:47:42.294Z,30.03
2019-01-25T19:50:13.127Z,28.33
2019-01-25T19:52:41.981Z,29.27
2019-01-25T19:55:14.382Z,27.20
2019-01-25T19:57:43.175Z,29.67
2019-01-25T20:00:16.069Z,27.73
2019-01-25T20:02:44.849Z,26.03
2019-01-25T20:05:14.498Z,26.83
2019-01-25T20:07:43.308Z,29.83
2019-01-25T20:10:12.270Z,28.40
2019-01-25T20:12:41.066Z,30.13
2019-01-25T20:15:11.535Z,34.67
2019-01-25T20:17:40.404Z,29.07
2019-01-25T20:20:12.829Z,27.73
2019-01-25T20:22:41.591Z,27.13
2019-01-25T20:25:10.370Z,25.67
2019-01-25T20:27:39.232Z,27.27
2019-01-25T20:30:11.562Z,27.30
2019-01-25T20:32:40.432Z,29.20
2019-01-25T20:35:12.194Z,27.57
2019-01-25T20:37:40.995Z,29.03
2019-01-25T20:40:12.014Z,26.77
2019-01-25T20:42:40.882Z,26.43
2019-01-25T20:45:12.666Z,22.93
2019-01-25T20:47:41.447Z,24.50
2019-01-25T20:50:13.207Z,25.13
2019-01-25T20:52:42.097Z,23.47
2019-01-25T20:55:12.348Z,25.53
2019-01-25T20:57:42.227Z,25.03
2019-01-25T21:00:14.805Z,30.07
2019-01-25T21:02:47.414Z,29.47
2019-01-25T21:05:16.230Z,24.50
2019-01-25T21:07:45.029Z,25.43
2019-01-25T21:10:15.702Z,24.10
2019-01-25T21:12:44.511Z,25.87
2019-01-25T21:15:14.391Z,25.93
2019-01-25T21:17:43.807Z,27.00
2019-01-25T21:20:16.160Z,25.70
2019-01-25T21:22:44.955Z,27.20
2019-01-25T21:25:13.808Z,25.80
2019-01-25T21:27:43.176Z,27.93
2019-01-25T21:30:14.928Z,24.33
2019-01-25T21:32:43.765Z,27.43
2019-01-25T21:35:12.654Z,25.50
2019-01-25T21:37:41.448Z,27.67
2019-01-25T21:40:13.196Z,25.43
2019-01-25T21:42:42.014Z,26.77
2019-01-25T21:45:13.074Z,25.30
2019-01-25T21:47:41.911Z,28.43
2019-01-25T21:50:12.314Z,30.87
2019-01-25T21:52:41.134Z,35.93
2019-01-25T21:55:11.300Z,30.63
2019-01-25T21:57:40.238Z,33.40
2019-01-25T22:00:12.451Z,31.63
2019-01-25T22:02:41.312Z,32.60
2019-01-25T22:05:10.696Z,34.40
2019-01-25T22:07:40.959Z,37.97
2019-01-25T22:10:13.357Z,40.53
2019-01-25T22:12:42.155Z,39.47
2019-01-25T22:15:11.360Z,38.03
2019-01-25T22:17:40.985Z,36.50
2019-01-25T22:20:14.712Z,36.10
2019-01-25T22:22:43.479Z,34.63
2019-01-25T22:25:12.470Z,37.37
2019-01-25T22:27:41.308Z,37.07
2019-01-25T22:30:12.717Z,37.33
2019-01-25T22:32:41.767Z,38.00
2019-01-25T22:35:10.588Z,39.77
2019-01-25T22:37:39.399Z,44.70
2019-01-25T22:40:10.903Z,37.50
2019-01-25T22:42:39.756Z,40.63
2019-01-25T22:45:10.811Z,42.10
2019-01-25T22:47:39.598Z,43.57
2019-01-25T22:50:11.868Z,45.70
2019-01-25T22:52:41.818Z,50.50
2019-01-25T22:55:13.161Z,53.10
2019-01-25T22:57:41.990Z,53.73
2019-01-25T23:00:18.990Z,50.13
2019-01-25T23:02:48.003Z,47.77
2019-01-25T23:05:27.139Z,47.80
2019-01-25T23:07:55.924Z,48.27
2019-01-25T23:10:24.754Z,47.27
2019-01-25T23:12:53.544Z,47.27
2019-01-25T23:15:23.706Z,48.70
2019-01-25T23:17:52.600Z,48.60
2019-01-25T23:20:21.408Z,48.27
2019-01-25T23:22:50.226Z,49.13
2019-01-25T23:25:19.015Z,49.50
2019-01-25T23:27:47.872Z,48.70
2019-01-25T23:30:17.770Z,48.10
2019-01-25T23:32:46.563Z,46.17
2019-01-25T23:35:15.343Z,48.90
2019-01-25T23:37:44.157Z,46.67
2019-01-25T23:40:14.551Z,46.80
2019-01-25T23:42:44.154Z,43.43
2019-01-25T23:45:13.284Z,48.33
2019-01-25T23:47:42.070Z,48.07
2019-01-25T23:50:11.864Z,45.37
2019-01-25T23:52:40.655Z,44.93
2019-01-25T23:55:09.705Z,43.63
2019-01-25T23:57:38.482Z,44.57
